createdAt,value
2022-11-06T00:00:48.309Z,17.20
2022-11-06T00:03:55.006Z,17.70
2022-11-06T00:06:57.973Z,18.60
2022-11-06T00:10:00.896Z,18.90
2022-11-06T00:13:04.209Z,23.40
2022-11-06T00:16:09.321Z,22.50
2022-11-06T00:19:12.691Z,20.90
2022-11-06T00:22:16.520Z,20.60
2022-11-06T00:25:19.439Z,23.80
2022-11-06T00:28:23.180Z,32.80
2022-11-06T00:31:29.127Z,26.10
2022-11-06T00:34:32.191Z,25.90
2022-11-06T00:37:35.832Z,23.80
2022-11-06T00:40:38.763Z,26.10
2022-11-06T00:43:42.897Z,25.50
2022-11-06T00:46:45.776Z,28.80
2022-11-06T00:49:48.720Z,24.80
2022-11-06T00:52:51.697Z,25.50
2022-11-06T00:55:54.640Z,22.10
2022-11-06T00:59:02.654Z,23.80
2022-11-06T01:02:05.738Z,23.80
2022-11-06T01:05:08.894Z,20.60
2022-11-06T01:08:12.158Z,24.20
2022-11-06T01:11:18.792Z,24.30
2022-11-06T01:14:22.950Z,23.20
2022-11-06T01:17:25.895Z,24.00
2022-11-06T01:20:28.758Z,26.40
2022-11-06T01:23:31.638Z,22.10
2022-11-06T01:26:39.308Z,22.90
2022-11-06T01:29:45.842Z,23.10
2022-11-06T01:32:48.773Z,26.40
2022-11-06T01:35:52.229Z,26.00
2022-11-06T01:38:58.041Z,22.00
2022-11-06T01:42:01.100Z,30.10
2022-11-06T01:45:52.416Z,29.70
2022-11-06T01:49:04.902Z,31.30
2022-11-06T01:52:12.297Z,30.00
2022-11-06T01:55:21.323Z,28.00
2022-11-06T01:58:26.607Z,24.10
2022-11-06T02:01:29.617Z,26.40
2022-11-06T02:04:36.450Z,29.40
2022-11-06T02:07:40.839Z,24.30
2022-11-06T02:10:44.589Z,25.30
2022-11-06T02:14:07.985Z,27.50
2022-11-06T02:17:40.048Z,30.40
2022-11-06T02:21:05.947Z,22.30
2022-11-06T02:24:28.071Z,26.30
2022-11-06T02:27:32.367Z,24.70
2022-11-06T02:30:43.177Z,24.60
2022-11-06T02:33:52.059Z,23.50
2022-11-06T02:37:03.955Z,31.90
2022-11-06T02:40:09.719Z,22.50
2022-11-06T02:43:15.879Z,27.70
2022-11-06T02:46:46.790Z,23.30
2022-11-06T02:49:57.621Z,25.00
2022-11-06T02:53:04.184Z,24.10
2022-11-06T02:56:14.528Z,23.00
2022-11-06T02:59:43.295Z,44.70
2022-11-06T03:02:52.144Z,25.30
2022-11-06T03:06:01.904Z,23.20
2022-11-06T03:09:09.943Z,20.60
2022-11-06T03:12:33.464Z,15.70
2022-11-06T03:15:48.628Z,23.50
2022-11-06T03:19:07.462Z,20.20
2022-11-06T03:22:14.373Z,17.60
2022-11-06T03:25:35.518Z,21.20
2022-11-06T03:28:43.646Z,21.40
2022-11-06T03:31:51.924Z,25.90
2022-11-06T03:35:07.268Z,29.60
2022-11-06T03:38:20.252Z,16.90
2022-11-06T03:41:33.384Z,19.80
2022-11-06T03:44:41.429Z,25.70
2022-11-06T03:47:49.668Z,23.20
2022-11-06T03:51:07.014Z,25.90
2022-11-06T03:54:29.569Z,17.80
2022-11-06T04:00:49.651Z,17.30
2022-11-06T04:04:05.557Z,25.20
2022-11-06T04:07:13.454Z,21.20
2022-11-06T04:10:34.723Z,12.60
2022-11-06T04:14:00.868Z,17.70
2022-11-06T04:17:09.542Z,14.80
2022-11-06T04:20:38.731Z,23.00
2022-11-06T04:24:20.656Z,15.90
2022-11-06T04:27:32.541Z,24.10
2022-11-06T04:30:45.181Z,23.10
2022-11-06T04:33:58.633Z,22.30
2022-11-06T04:37:21.264Z,25.70
2022-11-06T04:43:48.842Z,19.00
2022-11-06T04:47:00.831Z,14.90
2022-11-06T04:50:07.838Z,18.50
2022-11-06T04:53:11.584Z,28.30
2022-11-06T04:56:25.556Z,18.30
2022-11-06T04:59:32.219Z,23.40
2022-11-06T05:02:35.147Z,21.70
2022-11-06T05:05:38.223Z,22.30
2022-11-06T05:08:41.267Z,19.30
2022-11-06T05:11:44.490Z,12.10
2022-11-06T05:14:47.486Z,10.30
2022-11-06T05:17:50.373Z,17.20
2022-11-06T05:21:12.149Z,12.50
2022-11-06T05:24:15.022Z,11.80
2022-11-06T05:27:18.043Z,18.90
2022-11-06T05:30:21.583Z,11.70
2022-11-06T05:33:24.529Z,14.50
2022-11-06T05:36:27.411Z,22.70
2022-11-06T05:39:30.336Z,11.30
2022-11-06T05:42:33.304Z,16.50
2022-11-06T05:45:36.993Z,11.50
2022-11-06T05:48:40.203Z,14.90
2022-11-06T05:51:43.201Z,23.10
2022-11-06T05:54:46.138Z,16.90
2022-11-06T05:57:49.138Z,21.80
2022-11-06T06:00:52.436Z,18.50
2022-11-06T06:03:55.419Z,17.70
2022-11-06T06:06:58.475Z,13.60
2022-11-06T06:10:01.674Z,12.10
2022-11-06T06:13:04.602Z,15.40
2022-11-06T06:16:07.663Z,12.50
2022-11-06T06:19:10.632Z,9.10
2022-11-06T06:22:13.556Z,11.90
2022-11-06T06:25:22.654Z,10.90
2022-11-06T06:28:26.071Z,11.70
2022-11-06T06:31:29.498Z,11.40
2022-11-06T06:34:32.708Z,12.70
2022-11-06T06:37:35.716Z,13.70
2022-11-06T06:40:38.688Z,13.70
2022-11-06T06:43:41.617Z,14.70
2022-11-06T06:46:44.831Z,12.20
2022-11-06T06:49:47.733Z,13.60
2022-11-06T06:52:55.810Z,11.00
2022-11-06T06:56:00.684Z,12.50
2022-11-06T06:59:03.586Z,10.60
2022-11-06T07:02:06.646Z,12.70
2022-11-06T07:05:09.622Z,12.20
2022-11-06T07:08:15.351Z,14.30
2022-11-06T07:11:18.605Z,18.90
2022-11-06T07:14:21.528Z,37.80
2022-11-06T07:17:24.514Z,39.40
2022-11-06T07:20:27.518Z,27.90
2022-11-06T07:23:30.486Z,18.90
2022-11-06T07:26:33.823Z,17.30
2022-11-06T07:29:37.112Z,22.20
2022-11-06T07:32:40.063Z,30.80
2022-11-06T07:35:43.038Z,39.70
2022-11-06T07:38:46.031Z,39.90
2022-11-06T07:41:49.675Z,32.00
2022-11-06T07:44:55.480Z,42.10
2022-11-06T07:47:59.289Z,81.00
2022-11-06T07:51:06.108Z,81.60
2022-11-06T07:54:10.551Z,90.00
2022-11-06T07:57:13.692Z,76.90
2022-11-06T08:00:16.839Z,80.10
2022-11-06T08:03:20.373Z,74.00
2022-11-06T08:06:23.335Z,73.20
2022-11-06T08:09:26.245Z,79.10
2022-11-06T08:12:29.138Z,67.60
2022-11-06T08:15:32.033Z,78.00
2022-11-06T08:18:36.207Z,77.80
2022-11-06T08:21:39.292Z,63.30
2022-11-06T08:24:43.044Z,52.30
2022-11-06T08:27:46.192Z,60.30
2022-11-06T08:30:49.398Z,53.10
2022-11-06T08:33:53.552Z,38.80
2022-11-06T08:36:56.436Z,35.40
2022-11-06T08:39:59.390Z,33.20
2022-11-06T08:43:04.919Z,34.10
2022-11-06T08:46:09.710Z,35.70
2022-11-06T08:49:12.728Z,32.90
2022-11-06T08:52:15.752Z,35.40
2022-11-06T08:55:18.655Z,31.60
2022-11-06T08:58:21.646Z,39.10
2022-11-06T09:01:24.695Z,37.50
2022-11-06T09:04:27.731Z,30.60
2022-11-06T09:07:30.873Z,21.10
2022-11-06T09:10:34.120Z,25.30
2022-11-06T09:13:37.004Z,29.70
2022-11-06T09:16:39.919Z,23.90
2022-11-06T09:19:42.796Z,22.30
2022-11-06T09:22:46.488Z,21.70
2022-11-06T09:25:49.817Z,16.10
2022-11-06T09:28:52.773Z,22.40
2022-11-06T09:31:55.786Z,30.30
2022-11-06T09:34:58.865Z,22.00
2022-11-06T09:38:07.267Z,36.30
2022-11-06T09:41:47.141Z,36.80
2022-11-06T09:45:02.005Z,27.00
2022-11-06T09:48:21.211Z,26.00
2022-11-06T09:51:24.100Z,19.90
2022-11-06T09:54:38.801Z,15.30
2022-11-06T09:57:48.711Z,9.60
2022-11-06T10:00:54.272Z,8.50
2022-11-06T10:04:00.206Z,7.30
2022-11-06T10:07:03.140Z,7.50
2022-11-06T10:10:14.881Z,8.20
2022-11-06T10:13:45.477Z,10.40
2022-11-06T10:16:54.024Z,9.80
2022-11-06T10:20:00.219Z,11.70
2022-11-06T10:23:15.728Z,13.60
2022-11-06T10:26:22.096Z,11.20
2022-11-06T10:29:56.052Z,11.40
2022-11-06T10:33:11.220Z,8.10
2022-11-06T10:36:24.014Z,9.00
2022-11-06T10:39:31.819Z,8.90
2022-11-06T10:42:38.662Z,7.30
2022-11-06T10:45:47.772Z,9.80
2022-11-06T10:48:58.445Z,6.80
2022-11-06T10:52:15.719Z,10.10
2022-11-06T10:55:46.569Z,6.40
2022-11-06T10:58:49.574Z,10.60
2022-11-06T11:01:52.687Z,8.80
2022-11-06T11:04:58.193Z,8.40
2022-11-06T11:08:01.613Z,9.30
2022-11-06T11:11:13.690Z,10.80
2022-11-06T11:17:26.177Z,7.20
2022-11-06T11:20:32.836Z,8.10
2022-11-06T11:23:36.083Z,13.60
2022-11-06T11:26:49.363Z,8.60
2022-11-06T11:29:52.295Z,9.60
2022-11-06T11:32:57.313Z,11.70
2022-11-06T11:36:02.309Z,10.90
2022-11-06T11:39:05.329Z,9.30
2022-11-06T11:42:30.898Z,10.70
2022-11-06T11:45:33.830Z,14.20
2022-11-06T11:48:51.478Z,12.20
2022-11-06T11:51:56.050Z,12.10
2022-11-06T11:54:58.995Z,12.00
2022-11-06T11:58:02.293Z,14.00
2022-11-06T12:01:07.588Z,9.70
2022-11-06T12:04:17.433Z,14.90
2022-11-06T12:07:33.973Z,9.90
2022-11-06T12:10:39.723Z,12.80
2022-11-06T12:13:42.694Z,10.70
2022-11-06T12:16:50.198Z,11.30
2022-11-06T12:19:57.768Z,11.40
2022-11-06T12:23:04.119Z,11.40
2022-11-06T12:26:33.428Z,10.30
2022-11-06T12:30:02.516Z,13.80
2022-11-06T12:33:17.612Z,14.90
2022-11-06T12:36:24.756Z,13.70
2022-11-06T12:39:32.914Z,11.60
2022-11-06T12:42:36.117Z,10.20
2022-11-06T12:45:56.835Z,11.00
2022-11-06T12:49:21.000Z,12.30
2022-11-06T12:52:41.894Z,12.80
2022-11-06T12:56:13.092Z,23.50
2022-11-06T12:59:38.274Z,16.50
2022-11-06T13:03:09.248Z,18.30
2022-11-06T13:06:21.283Z,13.10
2022-11-06T13:09:49.065Z,11.90
2022-11-06T13:13:30.788Z,9.30
2022-11-06T13:16:41.931Z,11.70
2022-11-06T13:20:12.500Z,12.00
2022-11-06T13:23:23.521Z,13.00
2022-11-06T13:26:34.739Z,11.40
2022-11-06T13:29:38.389Z,14.50
2022-11-06T13:32:48.494Z,11.90
2022-11-06T13:35:55.979Z,9.10
2022-11-06T13:39:18.046Z,11.00
2022-11-06T13:42:29.695Z,13.20
2022-11-06T13:46:14.214Z,11.30
2022-11-06T13:49:28.300Z,13.00
2022-11-06T13:52:48.588Z,15.30
2022-11-06T13:56:01.079Z,17.40
2022-11-06T13:59:16.047Z,13.50
2022-11-06T14:02:35.245Z,16.80
2022-11-06T14:05:50.767Z,11.80
2022-11-06T14:08:56.680Z,15.60
2022-11-06T14:12:03.392Z,21.40
2022-11-06T14:15:28.607Z,17.70
2022-11-06T14:18:32.328Z,15.90
2022-11-06T14:21:55.874Z,18.90
2022-11-06T14:25:02.040Z,17.00
2022-11-06T14:28:06.303Z,19.30
2022-11-06T14:31:12.676Z,13.30
2022-11-06T14:34:28.946Z,16.30
2022-11-06T14:37:31.849Z,15.70
2022-11-06T14:40:35.419Z,14.70
2022-11-06T14:43:38.423Z,14.40
2022-11-06T14:46:49.811Z,15.00
2022-11-06T14:49:55.164Z,13.10
2022-11-06T14:53:04.990Z,14.20
2022-11-06T14:56:10.817Z,15.80
2022-11-06T14:59:22.008Z,11.80
2022-11-06T15:02:31.151Z,14.00
2022-11-06T15:05:42.020Z,16.60
2022-11-06T15:08:45.413Z,16.80
2022-11-06T15:11:50.323Z,16.20
2022-11-06T15:14:55.121Z,18.20
2022-11-06T15:17:59.711Z,15.60
2022-11-06T15:21:08.502Z,17.70
2022-11-06T15:24:25.985Z,18.40
2022-11-06T15:27:43.279Z,21.20
2022-11-06T15:31:00.981Z,23.10
2022-11-06T15:34:16.616Z,27.10
2022-11-06T15:37:23.745Z,30.60
2022-11-06T15:40:38.912Z,32.80
2022-11-06T15:43:45.295Z,37.00
2022-11-06T15:46:59.068Z,51.80
2022-11-06T15:50:18.839Z,45.90
2022-11-06T15:53:26.097Z,54.20
2022-11-06T15:56:33.620Z,52.90
2022-11-06T15:59:36.586Z,61.30
2022-11-06T16:02:48.874Z,57.80
2022-11-06T16:08:57.741Z,56.60
2022-11-06T16:12:01.087Z,56.30
2022-11-06T16:15:04.390Z,52.40
2022-11-06T16:18:16.291Z,46.50
2022-11-06T16:21:26.045Z,40.50
2022-11-06T16:24:34.172Z,40.70
2022-11-06T16:27:41.900Z,44.70
2022-11-06T16:30:48.516Z,49.40
2022-11-06T16:33:59.668Z,45.70
2022-11-06T16:37:31.623Z,36.80
2022-11-06T16:40:49.965Z,32.10
2022-11-06T16:44:22.629Z,27.50
2022-11-06T16:47:29.572Z,29.40
2022-11-06T16:50:43.381Z,31.10
2022-11-06T16:53:55.947Z,32.30
2022-11-06T16:57:12.820Z,31.40
2022-11-06T17:00:29.855Z,32.00
2022-11-06T17:03:46.358Z,29.40
2022-11-06T17:06:51.304Z,29.00
2022-11-06T17:09:56.312Z,34.80
2022-11-06T17:12:59.523Z,31.50
2022-11-06T17:16:05.524Z,33.30
2022-11-06T17:19:08.511Z,31.60
2022-11-06T17:22:11.459Z,38.70
2022-11-06T17:25:14.701Z,35.20
2022-11-06T17:28:19.045Z,34.50
2022-11-06T17:31:24.019Z,43.10
2022-11-06T17:34:32.750Z,44.30
2022-11-06T17:37:37.338Z,47.50
2022-11-06T17:40:41.502Z,51.10
2022-11-06T17:43:44.583Z,51.30
2022-11-06T17:46:47.617Z,54.00
2022-11-06T17:49:51.045Z,49.70
2022-11-06T17:52:54.140Z,47.80
2022-11-06T17:55:57.083Z,49.50
2022-11-06T17:59:00.148Z,55.50
2022-11-06T18:02:04.146Z,49.60
2022-11-06T18:05:08.389Z,57.00
2022-11-06T18:08:13.426Z,55.10
2022-11-06T18:11:16.664Z,60.60
2022-11-06T18:14:20.639Z,67.00
2022-11-06T18:17:23.657Z,64.30
2022-11-06T18:20:26.907Z,61.50
2022-11-06T18:23:30.129Z,54.60
2022-11-06T18:26:33.504Z,50.30
2022-11-06T18:29:36.720Z,49.20
2022-11-06T18:32:39.628Z,47.30
2022-11-06T18:35:42.732Z,38.10
2022-11-06T18:38:45.784Z,40.00
2022-11-06T18:41:48.974Z,38.30
2022-11-06T18:44:52.011Z,36.50
2022-11-06T18:47:54.983Z,38.40
2022-11-06T18:50:58.194Z,32.60
2022-11-06T18:54:04.617Z,34.60
2022-11-06T18:57:07.602Z,35.10
2022-11-06T19:00:13.307Z,34.60
2022-11-06T19:03:16.210Z,36.10
2022-11-06T19:06:20.577Z,33.00
2022-11-06T19:09:23.485Z,39.70
2022-11-06T19:12:26.470Z,41.90
2022-11-06T19:15:29.388Z,40.20
2022-11-06T19:18:35.133Z,46.00
2022-11-06T19:21:40.392Z,52.30
2022-11-06T19:24:43.440Z,47.70
2022-11-06T19:27:47.254Z,53.10
2022-11-06T19:30:50.988Z,55.00
2022-11-06T19:33:55.497Z,50.30
2022-11-06T19:36:58.473Z,52.80
2022-11-06T19:40:06.164Z,52.60
2022-11-06T19:43:09.654Z,51.60
2022-11-06T19:46:12.620Z,52.50
2022-11-06T19:49:16.534Z,49.10
2022-11-06T19:52:41.499Z,53.80
2022-11-06T19:55:42.831Z,43.40
2022-11-06T19:58:47.431Z,44.60
2022-11-06T20:01:51.072Z,45.40
2022-11-06T20:04:54.062Z,39.80
2022-11-06T20:07:57.116Z,38.60
2022-11-06T20:11:13.955Z,41.80
2022-11-06T20:14:21.686Z,42.90
2022-11-06T20:17:24.806Z,41.40
2022-11-06T20:20:31.833Z,42.80
2022-11-06T20:23:38.826Z,40.30
2022-11-06T20:26:42.283Z,42.70
2022-11-06T20:29:45.739Z,42.70
2022-11-06T20:32:48.844Z,45.40
2022-11-06T20:35:51.838Z,54.80
2022-11-06T20:38:57.742Z,53.40
2022-11-06T20:42:00.755Z,52.90
2022-11-06T20:45:04.888Z,51.20
2022-11-06T20:48:09.589Z,47.40
2022-11-06T20:51:15.362Z,51.10
2022-11-06T20:54:18.492Z,41.70
2022-11-06T20:57:21.503Z,50.00
2022-11-06T21:00:24.657Z,46.90
2022-11-06T21:03:27.679Z,43.50
2022-11-06T21:06:31.080Z,44.70
2022-11-06T21:09:34.206Z,44.80
2022-11-06T21:12:37.291Z,45.50
2022-11-06T21:15:40.244Z,46.20
2022-11-06T21:18:43.538Z,47.40
2022-11-06T21:21:47.103Z,43.80
2022-11-06T21:24:50.197Z,44.00
2022-11-06T21:27:53.287Z,44.70
2022-11-06T21:30:56.359Z,44.80
2022-11-06T21:34:01.373Z,50.30
2022-11-06T21:37:04.305Z,50.00
2022-11-06T21:40:07.629Z,46.30
2022-11-06T21:43:10.851Z,45.30
2022-11-06T21:46:14.884Z,50.10
2022-11-06T21:49:17.878Z,46.50
2022-11-06T21:52:42.666Z,49.90
2022-11-06T21:56:00.756Z,48.00
2022-11-06T21:59:05.574Z,47.20
2022-11-06T22:02:09.287Z,47.40
2022-11-06T22:05:12.352Z,47.40
2022-11-06T22:08:15.423Z,44.10
2022-11-06T22:11:20.136Z,44.40
2022-11-06T22:14:23.161Z,40.90
2022-11-06T22:17:26.284Z,40.70
2022-11-06T22:20:29.268Z,40.20
2022-11-06T22:23:33.726Z,41.00
2022-11-06T22:26:37.987Z,47.80
2022-11-06T22:29:41.408Z,47.10
2022-11-06T22:32:44.417Z,45.20
2022-11-06T22:35:47.491Z,42.70
2022-11-06T22:38:51.147Z,46.50
2022-11-06T22:41:54.167Z,45.60
2022-11-06T22:44:57.346Z,44.60
2022-11-06T22:48:00.562Z,44.60
2022-11-06T22:51:07.684Z,46.70
2022-11-06T22:54:10.620Z,43.00
2022-11-06T22:57:13.633Z,44.30
2022-11-06T23:00:17.792Z,45.50
2022-11-06T23:03:22.136Z,41.30
2022-11-06T23:06:26.020Z,43.30
2022-11-06T23:09:29.052Z,43.40
2022-11-06T23:12:32.079Z,40.20
2022-11-06T23:15:35.514Z,41.40
2022-11-06T23:18:38.603Z,42.20
2022-11-06T23:21:42.613Z,41.70
2022-11-06T23:24:45.929Z,38.40
2022-11-06T23:27:50.097Z,38.40
2022-11-06T23:30:53.171Z,40.80
2022-11-06T23:33:56.199Z,39.80
2022-11-06T23:36:59.122Z,41.50
2022-11-06T23:40:03.018Z,41.10
2022-11-06T23:43:05.946Z,40.70
2022-11-06T23:46:08.916Z,38.90
2022-11-06T23:49:11.910Z,43.60
2022-11-06T23:52:15.065Z,41.30
2022-11-06T23:55:18.059Z,44.60
2022-11-06T23:58:20.966Z,38.50
